createdAt,value
2022-08-05T00:28:41.650Z,75.44
2022-08-05T00:58:46.198Z,78.57
2022-08-05T01:28:55.233Z,81.29
2022-08-05T01:59:00.194Z,80.34
2022-08-05T02:29:05.486Z,79.37
2022-08-05T02:59:26.961Z,80.47
2022-08-05T03:29:44.728Z,85.38
2022-08-05T03:59:58.342Z,84.69
2022-08-05T04:30:06.905Z,84.06
2022-08-05T05:00:13.700Z,84.91
2022-08-05T05:30:31.203Z,87.98
2022-08-05T06:00:38.556Z,88.63
2022-08-05T06:30:42.902Z,87.50
2022-08-05T07:00:47.265Z,79.84
2022-08-05T07:30:54.718Z,76.39
2022-08-05T08:00:59.402Z,75.31
2022-08-05T08:31:04.442Z,74.17
2022-08-05T09:01:15.589Z,68.48
2022-08-05T09:32:08.522Z,68.32
2022-08-05T10:01:47.286Z,65.07
2022-08-05T10:32:52.606Z,63.98
2022-08-05T11:02:38.264Z,62.55
2022-08-05T11:32:39.869Z,57.81
2022-08-05T12:02:44.617Z,58.15
2022-08-05T12:32:51.150Z,61.20
2022-08-05T13:02:56.449Z,60.04
2022-08-05T13:33:01.235Z,65.10
2022-08-05T14:03:06.043Z,64.51
2022-08-05T14:33:10.501Z,57.18
2022-08-05T15:03:20.662Z,50.06
2022-08-05T15:34:19.468Z,45.60
2022-08-05T16:03:51.572Z,44.62
2022-08-05T16:33:56.017Z,43.67
2022-08-05T17:04:00.269Z,47.31
2022-08-05T17:34:04.634Z,50.89
2022-08-05T18:04:11.980Z,53.80
2022-08-05T18:34:21.527Z,56.63
2022-08-05T19:04:26.079Z,58.33
2022-08-05T19:34:30.757Z,60.10
2022-08-05T20:04:35.258Z,55.75
2022-08-05T20:34:40.047Z,56.43
2022-08-05T21:04:46.004Z,57.63
2022-08-05T21:34:55.879Z,58.36
2022-08-05T22:05:13.957Z,59.27
2022-08-05T22:35:18.148Z,59.96
2022-08-05T23:05:23.747Z,59.75
2022-08-05T23:35:34.191Z,59.33
